Academy, South Dakota
Current Conditions -  °F | °C
As of 7:15 AM on Sunday 23 Nov 2014 (Local Time) from K9V9 Reporting Station
Overcast Overcast  
Wind Chill: 30°   Ceiling: 8500
Heat Index: 38°   Visibility: 10mi
Dew Point: 34°   Wind: 13mph
Humidity: 85%   Direction: 290°WNW
Pressure: 29.58"   Gusts: 18mph
Location:  43.4255°N, 98.9806°W
Report Text: K9V9 231315Z AUTO 29011G16KT 10SM OVC085 03/01 A2958 RMK AO2 T00340011
Loading
Personal Weather Stations






























Interactive Weather Map New forecast layout! Learn more

10-Day Weather Forecast

Advertisements
Track Severe Weather on mobile